Time;durP1;ratioP1;P1;durP2;ratioP2;P2;SDS_P1;SDS_P2;PMS_P1;PMS_P2;Temp;Humidity;BMP_temperature;BMP_pressure;BME280_temperature;BME280_humidity;BME280_pressure;Samples;Min_cycle;Max_cycle;Signal;HPM_P1;HPM_P2
2022/04/10 00:00:59;;;;;;;13.57;7.30;;;8.00;99.90;;;;;;4360717;32;20081;-62
2022/04/10 00:03:26;;;;;;;13.95;7.78;;;8.10;99.90;;;;;;4350867;32;20586;-62
2022/04/10 00:05:52;;;;;;;13.10;8.38;;;8.00;99.90;;;;;;4360334;32;20074;-63
2022/04/10 00:08:20;;;;;;;14.13;8.45;;;7.90;99.90;;;;;;4361122;32;20085;-63
2022/04/10 00:10:47;;;;;;;16.02;8.73;;;7.90;99.90;;;;;;4360943;32;20079;-63
2022/04/10 00:13:13;;;;;;;13.98;9.02;;;7.90;99.90;;;;;;4359881;32;20088;-62
2022/04/10 00:15:40;;;;;;;15.07;9.80;;;7.90;99.90;;;;;;4360222;32;20520;-63
2022/04/10 00:18:06;;;;;;;14.87;8.60;;;7.90;99.90;;;;;;4348036;32;20101;-63
2022/04/10 00:20:32;;;;;;;11.88;7.78;;;8.00;99.90;;;;;;4360104;32;20144;-63
2022/04/10 00:22:58;;;;;;;13.80;9.00;;;8.70;99.90;;;;;;4359874;32;20173;-63
2022/04/10 00:25:25;;;;;;;15.68;10.77;;;8.10;99.90;;;;;;4360061;32;20172;-62
2022/04/10 00:27:51;;;;;;;15.68;9.57;;;7.90;99.90;;;;;;4359893;32;20081;-63
2022/04/10 00:30:18;;;;;;;12.77;8.32;;;7.80;99.90;;;;;;4360010;32;20078;-63
2022/04/10 00:32:44;;;;;;;12.88;8.77;;;8.00;99.90;;;;;;4359601;32;20088;-63
2022/04/10 00:35:12;;;;;;;12.65;8.23;;;8.10;99.90;;;;;;4347534;32;20445;-61
2022/04/10 00:37:39;;;;;;;14.07;8.82;;;8.20;99.90;;;;;;4360134;32;20086;-62
2022/04/10 00:40:08;;;;;;;14.10;8.05;;;8.30;99.90;;;;;;4360148;32;20086;-63
2022/04/10 00:42:41;;;;;;;12.80;7.60;;;8.20;99.90;;;;;;4359602;32;20167;-61
2022/04/10 00:45:09;;;;;;;13.40;8.65;;;8.30;99.90;;;;;;4362879;32;20118;-62
2022/04/10 00:47:36;;;;;;;18.30;8.65;;;8.30;99.90;;;;;;4374792;32;20067;-63
2022/04/10 00:50:06;;;;;;;14.63;9.05;;;8.80;99.90;;;;;;4364116;32;20109;-62
2022/04/10 00:52:32;;;;;;;13.00;8.18;;;8.20;99.90;;;;;;4350384;32;20078;-63
2022/04/10 00:54:59;;;;;;;13.43;8.57;;;8.20;99.90;;;;;;4363067;32;20100;-63
2022/04/10 00:57:26;;;;;;;13.45;9.00;;;8.40;99.90;;;;;;4362580;32;20086;-62
2022/04/10 00:59:52;;;;;;;14.50;8.90;;;8.30;99.90;;;;;;4362537;32;20081;-63
2022/04/10 01:02:19;;;;;;;14.38;8.55;;;8.40;99.90;;;;;;4367035;32;20462;-63
2022/04/10 01:04:48;;;;;;;14.35;9.02;;;8.40;99.90;;;;;;4380156;32;20077;-63
2022/04/10 01:07:17;;;;;;;15.32;7.95;;;8.30;99.90;;;;;;4380834;32;20142;-63
2022/04/10 01:09:43;;;;;;;14.93;9.07;;;8.30;99.90;;;;;;4367972;32;20502;-62
2022/04/10 01:12:10;;;;;;;13.55;8.98;;;8.10;99.90;;;;;;4394961;32;20079;-62
2022/04/10 01:14:38;;;;;;;16.08;9.15;;;8.10;99.90;;;;;;4369710;32;20101;-63
2022/04/10 01:17:09;;;;;;;15.85;9.23;;;8.10;99.90;;;;;;4369450;32;20078;-61
2022/04/10 01:19:38;;;;;;;17.42;9.18;;;8.20;99.90;;;;;;4367679;32;20074;-63
2022/04/10 01:22:06;;;;;;;14.48;9.05;;;8.10;99.90;;;;;;4393618;32;20100;-63
2022/04/10 01:24:40;;;;;;;17.02;9.85;;;8.30;99.90;;;;;;4379834;32;20089;-64
2022/04/10 01:27:07;;;;;;;18.10;9.60;;;8.40;99.90;;;;;;4394321;32;20080;-62
2022/04/10 01:29:34;;;;;;;17.45;9.10;;;8.30;99.90;;;;;;4367417;32;20077;-63
2022/04/10 01:32:00;;;;;;;16.65;9.35;;;8.20;99.90;;;;;;4379399;32;20150;-63
2022/04/10 01:34:27;;;;;;;14.80;8.32;;;8.10;99.90;;;;;;4393558;32;20080;-62
2022/04/10 01:36:53;;;;;;;14.52;8.70;;;7.90;99.90;;;;;;4393332;32;20157;-63
2022/04/10 01:39:21;;;;;;;13.45;8.38;;;7.90;99.90;;;;;;4379429;32;20085;-63
2022/04/10 01:41:47;;;;;;;14.55;9.38;;;7.80;99.90;;;;;;4393240;32;20161;-63
2022/04/10 01:44:14;;;;;;;16.35;9.07;;;7.90;99.90;;;;;;4366903;32;20085;-63
2022/04/10 01:46:41;;;;;;;16.77;9.63;;;8.10;99.90;;;;;;4379374;32;20074;-63
2022/04/10 01:49:07;;;;;;;14.70;8.90;;;8.20;99.90;;;;;;4379152;32;20154;-63
2022/04/10 01:51:34;;;;;;;18.23;9.20;;;8.10;99.90;;;;;;4393209;32;20161;-62
2022/04/10 01:54:01;;;;;;;16.25;9.25;;;8.10;99.90;;;;;;4379338;32;20073;-63
2022/04/10 01:56:27;;;;;;;16.05;8.70;;;8.10;99.90;;;;;;4366294;32;20173;-62
2022/04/10 01:58:53;;;;;;;17.52;9.13;;;8.20;99.90;;;;;;4366699;32;20082;-63
2022/04/10 02:01:21;;;;;;;18.02;9.48;;;8.30;99.90;;;;;;4378240;32;20452;-63
2022/04/10 02:03:50;;;;;;;14.75;9.07;;;7.90;99.90;;;;;;4393095;32;20086;-63
2022/04/10 02:06:17;;;;;;;15.00;9.40;;;8.10;99.90;;;;;;4379330;32;20537;-63
2022/04/10 02:08:43;;;;;;;17.20;9.13;;;8.10;99.90;;;;;;4379028;32;20158;-63
2022/04/10 02:11:15;;;;;;;15.73;9.18;;;8.10;99.90;;;;;;4366590;32;20163;-63
2022/04/10 02:13:43;;;;;;;16.60;9.90;;;8.20;99.90;;;;;;4380222;32;20084;-63
2022/04/10 02:16:14;;;;;;;16.60;9.73;;;8.30;99.90;;;;;;4379851;32;20074;-63
2022/04/10 02:18:41;;;;;;;16.90;10.30;;;8.20;99.90;;;;;;4379327;32;20166;-63
2022/04/10 02:21:08;;;;;;;19.25;11.32;;;8.10;99.90;;;;;;4378487;32;20515;-62
2022/04/10 02:23:34;;;;;;;17.00;10.48;;;7.90;99.90;;;;;;4378471;32;20149;-63
2022/04/10 02:26:01;;;;;;;15.13;10.13;;;7.90;99.90;;;;;;4392652;32;20104;-62
2022/04/10 02:28:27;;;;;;;17.42;10.05;;;7.80;99.90;;;;;;4392822;32;20088;-61
2022/04/10 02:30:54;;;;;;;14.68;9.98;;;7.80;99.90;;;;;;4366172;32;20184;-63
2022/04/10 02:33:20;;;;;;;15.18;10.32;;;7.70;99.90;;;;;;4392842;32;20087;-63
2022/04/10 02:35:46;;;;;;;14.82;9.43;;;7.60;99.90;;;;;;4378376;32;20086;-62
2022/04/10 02:38:13;;;;;;;14.93;9.90;;;7.50;99.90;;;;;;4378261;32;20082;-63
2022/04/10 02:40:39;;;;;;;17.35;10.35;;;7.60;99.90;;;;;;4378652;32;20132;-63
2022/04/10 02:43:05;;;;;;;14.70;9.57;;;7.50;99.90;;;;;;4392311;32;20605;-62
2022/04/10 02:45:32;;;;;;;17.02;10.60;;;7.40;99.90;;;;;;4392627;32;20081;-62
2022/04/10 02:47:58;;;;;;;16.40;10.45;;;7.30;99.90;;;;;;4378576;32;20093;-62
2022/04/10 02:50:24;;;;;;;15.25;10.00;;;7.40;99.90;;;;;;4378307;32;20073;-63
2022/04/10 02:52:51;;;;;;;16.73;10.18;;;7.30;99.90;;;;;;4378584;32;20157;-63
2022/04/10 02:55:18;;;;;;;16.62;10.80;;;7.40;99.90;;;;;;4353869;32;20078;-63
2022/04/10 02:57:44;;;;;;;15.73;10.30;;;7.30;99.90;;;;;;4378749;32;20161;-63
2022/04/10 03:00:11;;;;;;;16.80;10.52;;;7.30;99.90;;;;;;4399556;32;20069;-63
2022/04/10 03:02:41;;;;;;;17.60;10.90;;;7.40;99.90;;;;;;4384783;32;20504;-64
2022/04/10 03:05:11;;;;;;;18.45;10.85;;;;;;;;;;4379030;32;20157;-63
2022/04/10 03:07:38;;;;;;;18.37;10.23;;;;;;;;;;4391796;32;20153;-63
2022/04/10 03:10:05;;;;;;;16.60;10.32;;;;;;;;;;4392896;32;20083;-63
2022/04/10 03:12:31;;;;;;;17.58;10.98;;;;;;;;;;4378760;32;20118;-62
2022/04/10 03:14:58;;;;;;;17.73;10.65;;;;;;;;;;4378382;32;20172;-63
2022/04/10 03:17:25;;;;;;;18.35;10.95;;;;;;;;;;4377915;32;20074;-62
2022/04/10 03:19:51;;;;;;;15.82;10.00;;;;;;;;;;4391815;32;20065;-63
2022/04/10 03:22:18;;;;;;;15.05;10.18;;;;;;;;;;4377685;32;20444;-63
2022/04/10 03:24:45;;;;;;;18.62;11.05;;;;;;;;;;4378374;32;20066;-63
2022/04/10 03:27:11;;;;;;;19.33;11.55;;;7.60;99.90;;;;;;4365554;32;20533;-63
2022/04/10 03:29:38;;;;;;;18.67;11.20;;;;;;;;;;4392279;32;20065;-62
2022/04/10 03:32:05;;;;;;;17.98;11.30;;;;;;;;;;4378031;32;20073;-63
2022/04/10 03:34:31;;;;;;;18.40;10.48;;;;;;;;;;4377998;32;20091;-63
2022/04/10 03:36:58;;;;;;;18.37;11.12;;;;;;;;;;4365323;32;20085;-63
2022/04/10 03:39:25;;;;;;;20.20;10.50;;;;;;;;;;4391737;32;20076;-62
2022/04/10 03:41:52;;;;;;;19.30;11.10;;;;;;;;;;4365146;32;20081;-63
2022/04/10 03:44:18;;;;;;;22.95;11.30;;;7.60;99.90;;;;;;4365942;32;20066;-63
2022/04/10 03:46:45;;;;;;;19.25;10.10;;;;;;;;;;4377748;32;20080;-63
2022/04/10 03:49:12;;;;;;;20.55;10.75;;;;;;;;;;4377742;32;20082;-62
2022/04/10 03:51:38;;;;;;;20.25;10.20;;;;;;;;;;4378022;32;20103;-61
2022/04/10 03:54:05;;;;;;;19.33;11.05;;;;;;;;;;4391732;32;20165;-63
2022/04/10 03:56:31;;;;;;;18.35;10.40;;;;;;;;;;4391496;32;20567;-63
2022/04/10 03:58:58;;;;;;;18.45;9.48;;;;;;;;;;4378109;32;20077;-63
2022/04/10 04:01:25;;;;;;;19.80;9.80;;;;;;;;;;4390830;32;20179;-63
2022/04/10 04:03:51;;;;;;;21.58;10.68;;;;;;;;;;4377357;32;20105;-63
2022/04/10 04:06:18;;;;;;;43.17;19.98;;;;;;;;;;4391711;32;20077;-62
2022/04/10 04:08:44;;;;;;;45.20;22.17;;;;;;;;;;4391449;32;20083;-62
2022/04/10 04:11:11;;;;;;;50.42;25.65;;;;;;;;;;4391150;32;20163;-63
2022/04/10 04:13:40;;;;;;;49.30;23.50;;;;;;;;;;4377195;32;20066;-63
2022/04/10 04:16:07;;;;;;;42.03;20.50;;;;;;;;;;4352268;32;20534;-62
2022/04/10 04:18:34;;;;;;;34.78;15.63;;;;;;;;;;4393606;32;20150;-62
2022/04/10 04:21:02;;;;;;;48.87;24.25;;;;;;;;;;4371206;32;20069;-66
2022/04/10 04:23:29;;;;;;;63.03;29.35;;;;;;;;;;4385761;32;20062;-65
2022/04/10 04:25:56;;;;;;;75.28;36.63;;;;;;;;;;4383149;32;20074;-63
2022/04/10 04:28:22;;;;;;;64.37;30.23;;;;;;;;;;4394957;32;20518;-64
2022/04/10 04:30:49;;;;;;;54.78;25.67;;;;;;;;;;4394104;32;20084;-62
2022/04/10 04:33:16;;;;;;;49.97;24.27;;;;;;;;;;4394488;32;20145;-62
2022/04/10 04:35:43;;;;;;;59.15;25.52;;;;;;;;;;4393959;32;20077;-62
2022/04/10 04:38:10;;;;;;;53.28;24.42;;;;;;;;;;4380051;32;20066;-63
2022/04/10 04:40:37;;;;;;;50.22;24.67;;;;;;;;;;4380081;32;20544;-63
2022/04/10 04:43:03;;;;;;;54.63;25.20;;;;;;;;;;4394020;32;20519;-63
2022/04/10 04:45:30;;;;;;;41.58;20.27;;;;;;;;;;4380062;32;20073;-63
2022/04/10 04:47:57;;;;;;;43.78;19.80;;;;;;;;;;4380095;32;20162;-63
2022/04/10 04:50:23;;;;;;;45.10;20.60;;;;;;;;;;4380050;32;20522;-63
2022/04/10 04:52:50;;;;;;;34.33;17.20;;;;;;;;;;4367627;32;20088;-63
2022/04/10 04:55:17;;;;;;;33.70;16.40;;;;;;;;;;4380269;32;20080;-62
2022/04/10 04:57:43;;;;;;;29.27;15.02;;;;;;;;;;4393719;32;20081;-62
2022/04/10 05:00:11;;;;;;;29.95;14.02;;;9.00;99.90;;;;;;4367472;32;20084;-63
2022/04/10 05:02:38;;;;;;;31.75;14.63;;;8.80;99.90;;;;;;4368207;32;20081;-62
2022/04/10 05:05:05;;;;;;;23.67;12.37;;;;;;;;;;4379878;32;20089;-62
2022/04/10 05:07:31;;;;;;;21.12;11.07;;;8.70;99.90;;;;;;4367453;32;20084;-63
2022/04/10 05:09:57;;;;;;;21.10;9.60;;;8.80;99.90;;;;;;4393701;32;20080;-63
2022/04/10 05:12:24;;;;;;;16.85;9.20;;;8.80;99.90;;;;;;4367174;32;20477;-63
2022/04/10 05:14:50;;;;;;;17.08;9.50;;;8.90;99.90;;;;;;4380053;32;20070;-62
2022/04/10 05:17:16;;;;;;;14.80;8.77;;;8.80;99.90;;;;;;4379723;32;20069;-62
2022/04/10 05:19:43;;;;;;;17.50;10.07;;;;;;;;;;4393686;32;20084;-63
2022/04/10 05:22:09;;;;;;;19.10;9.98;;;8.90;99.90;;;;;;4379574;32;20185;-63
2022/04/10 05:24:35;;;;;;;24.92;11.90;;;9.20;99.90;;;;;;4366974;32;20204;-63
2022/04/10 05:27:02;;;;;;;21.05;10.75;;;;;;;;;;4393254;32;20486;-62
2022/04/10 05:29:28;;;;;;;19.70;10.75;;;;;;;;;;4378734;32;20111;-63
2022/04/10 05:31:55;;;;;;;19.30;10.55;;;9.20;99.90;;;;;;4355293;32;20154;-63
2022/04/10 05:34:21;;;;;;;19.98;10.85;;;9.30;99.90;;;;;;4393219;32;20545;-63
2022/04/10 05:36:47;;;;;;;21.17;11.35;;;9.20;99.90;;;;;;4393862;32;20119;-63
2022/04/10 05:39:14;;;;;;;19.75;10.15;;;8.90;99.90;;;;;;4379554;32;20511;-63
2022/04/10 05:41:40;;;;;;;17.73;10.52;;;;;;;;;;4378935;32;20097;-63
2022/04/10 05:44:07;;;;;;;18.23;10.45;;;8.80;99.90;;;;;;4393416;32;20071;-61
2022/04/10 05:46:38;;;;;;;19.12;10.75;;;8.80;99.90;;;;;;4393263;32;20081;-62
2022/04/10 05:49:06;;;;;;;22.33;13.30;;;8.70;99.90;;;;;;4379129;32;20081;-61
2022/04/10 05:51:33;;;;;;;23.08;12.50;;;;;;;;;;4379051;32;20089;-63
2022/04/10 05:53:59;;;;;;;22.52;12.37;;;;;;;;;;4367341;32;20089;-62
2022/04/10 05:56:25;;;;;;;24.10;13.32;;;8.60;99.90;;;;;;4379402;32;20101;-63
2022/04/10 05:58:52;;;;;;;21.37;11.82;;;8.70;99.90;;;;;;4379072;32;20188;-62
2022/04/10 06:01:18;;;;;;;19.42;11.55;;;8.80;99.90;;;;;;4363593;32;20089;-62
2022/04/10 06:03:44;;;;;;;21.02;11.60;;;8.70;99.90;;;;;;4364008;32;20497;-62
2022/04/10 06:06:11;;;;;;;19.10;11.10;;;8.70;99.90;;;;;;4378524;32;20076;-63
2022/04/10 06:08:37;;;;;;;20.05;11.38;;;8.80;99.90;;;;;;4377970;32;20542;-63
2022/04/10 06:11:03;;;;;;;19.90;11.00;;;8.80;99.90;;;;;;4368039;32;20057;-61
2022/04/10 06:13:29;;;;;;;19.65;10.90;;;8.70;99.90;;;;;;4391588;32;20153;-62
2022/04/10 06:15:56;;;;;;;20.30;11.15;;;;;;;;;;4383773;32;20073;-62
2022/04/10 06:18:22;;;;;;;19.12;10.70;;;8.60;99.90;;;;;;4363897;32;20554;-63
2022/04/10 06:20:49;;;;;;;17.92;10.45;;;8.80;99.90;;;;;;4376435;32;20109;-63
2022/04/10 06:23:15;;;;;;;15.95;9.23;;;9.00;99.90;;;;;;4363738;32;20111;-63
2022/04/10 06:25:41;;;;;;;18.45;10.50;;;9.00;99.90;;;;;;4376469;32;20266;-63
2022/04/10 06:28:09;;;;;;;17.00;9.65;;;9.00;99.90;;;;;;4375881;32;20532;-62
2022/04/10 06:30:36;;;;;;;19.50;10.98;;;9.20;99.90;;;;;;4376867;32;20070;-61
2022/04/10 06:33:02;;;;;;;19.67;10.75;;;9.50;99.90;;;;;;4363862;32;20164;-62
2022/04/10 06:35:28;;;;;;;21.00;11.30;;;9.50;99.90;;;;;;4376291;32;20100;-63
2022/04/10 06:37:55;;;;;;;17.83;10.32;;;9.90;99.90;;;;;;4376177;32;20619;-62
2022/04/10 06:43:00;;;;;;;19.23;10.88;;;10.00;99.90;;;;;;3834686;37;20062;-63
2022/04/10 06:45:27;;;;;;;19.30;10.85;;;10.30;99.90;;;;;;4391357;32;20089;-63
2022/04/10 06:47:53;;;;;;;18.00;10.27;;;10.50;99.90;;;;;;4377863;32;20146;-63
2022/04/10 06:50:19;;;;;;;17.60;10.10;;;10.90;99.90;;;;;;4402963;32;20088;-63
2022/04/10 06:52:47;;;;;;;16.42;9.80;;;10.60;99.90;;;;;;4390496;32;20081;-63
2022/04/10 06:55:14;;;;;;;15.57;8.95;;;10.30;99.90;;;;;;4378525;32;20158;-62
2022/04/10 06:57:40;;;;;;;15.90;9.57;;;;;;;;;;4377767;32;20527;-63
2022/04/10 07:00:07;;;;;;;15.30;9.27;;;;;;;;;;4390050;32;20146;-64
2022/04/10 07:02:34;;;;;;;15.60;9.18;;;;;;;;;;4397917;32;20523;-62
2022/04/10 07:05:01;;;;;;;15.32;8.55;;;;;;;;;;4389104;32;20076;-63
2022/04/10 07:07:27;;;;;;;14.32;9.07;;;;;;;;;;4362410;32;20595;-62
2022/04/10 07:09:54;;;;;;;14.45;9.13;;;;;;;;;;4388889;32;20093;-64
2022/04/10 07:12:20;;;;;;;14.32;9.10;;;10.70;99.90;;;;;;4374904;32;20487;-63
2022/04/10 07:14:46;;;;;;;14.00;8.77;;;10.80;99.90;;;;;;4374897;32;20082;-62
2022/04/10 07:17:13;;;;;;;12.65;7.90;;;10.90;99.90;;;;;;4375033;32;20088;-63
2022/04/10 07:19:39;;;;;;;14.73;8.60;;;10.90;99.90;;;;;;4375192;32;20472;-63
2022/04/10 07:24:50;;;;;;;15.48;8.65;;;11.10;99.90;;;;;;4377443;32;20070;-61
2022/04/10 07:27:16;;;;;;;14.18;9.02;;;10.70;99.90;;;;;;4375282;32;20168;-62
2022/04/10 07:29:43;;;;;;;14.40;9.40;;;10.50;99.90;;;;;;4374839;32;20144;-63
2022/04/10 07:32:09;;;;;;;13.98;8.88;;;10.40;99.90;;;;;;4365729;32;20078;-61
2022/04/10 07:34:35;;;;;;;17.17;9.77;;;10.40;99.90;;;;;;4380712;32;20150;-62
2022/04/10 07:37:02;;;;;;;17.00;9.48;;;10.50;99.90;;;;;;4393609;32;20089;-61
2022/04/10 07:39:28;;;;;;;14.02;9.73;;;10.30;99.90;;;;;;4374889;32;20078;-63
2022/04/10 07:41:55;;;;;;;15.05;10.32;;;10.30;99.90;;;;;;4374627;32;20093;-63
2022/04/10 07:44:21;;;;;;;15.95;9.98;;;10.40;99.90;;;;;;4374646;32;20176;-62
2022/04/10 07:49:32;;;;;;;15.10;9.80;;;10.70;99.90;;;;;;4376056;32;20178;-63
2022/04/10 07:51:59;;;;;;;16.17;10.10;;;10.90;99.90;;;;;;4389325;32;20096;-62
2022/04/10 07:54:25;;;;;;;16.05;10.25;;;10.60;99.90;;;;;;4378918;32;20574;-63
2022/04/10 07:56:51;;;;;;;16.52;11.00;;;10.60;99.90;;;;;;4364514;32;20073;-62
2022/04/10 07:59:17;;;;;;;18.00;10.63;;;10.70;99.90;;;;;;4364444;32;20234;-62
2022/04/10 08:01:44;;;;;;;18.30;11.52;;;10.90;99.90;;;;;;4378714;32;20085;-63
2022/04/10 08:04:10;;;;;;;16.80;10.75;;;10.90;99.90;;;;;;4378769;32;20076;-63
2022/04/10 08:06:36;;;;;;;15.45;10.13;;;10.90;99.90;;;;;;4339553;32;20090;-62
2022/04/10 08:09:03;;;;;;;18.37;10.88;;;10.90;99.90;;;;;;4364285;32;20100;-62
2022/04/10 08:11:29;;;;;;;15.98;9.50;;;10.70;99.90;;;;;;4378030;32;20074;-61
2022/04/10 08:13:56;;;;;;;16.20;9.73;;;10.90;99.90;;;;;;4378025;32;20086;-62
2022/04/10 08:16:22;;;;;;;17.92;10.50;;;11.10;99.90;;;;;;4378209;32;20512;-63
2022/04/10 08:18:48;;;;;;;19.50;10.95;;;11.20;99.90;;;;;;4364148;32;20082;-63
2022/04/10 08:21:15;;;;;;;20.55;11.77;;;11.00;99.90;;;;;;4378170;32;20085;-64
2022/04/10 08:23:41;;;;;;;18.33;11.18;;;10.90;99.90;;;;;;4376869;32;20085;-64
2022/04/10 08:26:07;;;;;;;21.95;11.43;;;10.80;99.90;;;;;;4377877;32;20066;-64
2022/04/10 08:28:34;;;;;;;17.23;10.27;;;11.00;99.90;;;;;;4364622;32;20071;-62
2022/04/10 08:31:01;;;;;;;17.95;11.23;;;11.00;99.90;;;;;;4379122;32;20155;-63
2022/04/10 08:33:27;;;;;;;17.75;11.43;;;10.90;99.90;;;;;;4378299;32;20587;-63
2022/04/10 08:35:54;;;;;;;20.92;11.75;;;10.80;99.90;;;;;;4378105;32;20073;-63
2022/04/10 08:38:20;;;;;;;20.23;12.15;;;;;;;;;;4364117;32;20081;-63
2022/04/10 08:40:47;;;;;;;18.20;11.45;;;;;;;;;;4377417;32;20106;-63
2022/04/10 08:43:14;;;;;;;17.67;11.10;;;;;;;;;;4364562;32;20153;-63
2022/04/10 08:45:40;;;;;;;17.45;10.93;;;;;;;;;;4363772;32;20081;-63
2022/04/10 08:48:07;;;;;;;18.37;11.12;;;;;;;;;;4363854;32;20524;-63
2022/04/10 08:50:34;;;;;;;18.33;11.00;;;;;;;;;;4377648;32;20090;-63
2022/04/10 08:53:02;;;;;;;17.73;10.02;;;;;;;;;;4377895;32;20054;-63
2022/04/10 08:55:30;;;;;;;18.25;11.12;;;10.80;99.90;;;;;;4363744;32;20082;-63
2022/04/10 08:57:56;;;;;;;18.25;11.20;;;;;;;;;;4377683;32;20089;-63
2022/04/10 09:00:23;;;;;;;19.58;11.35;;;;;;;;;;4377656;32;20081;-61
2022/04/10 09:02:52;;;;;;;16.73;10.80;;;10.90;99.90;;;;;;4351116;32;20070;-63
2022/04/10 09:05:20;;;;;;;18.10;12.02;;;;;;;;;;4362884;32;20089;-63
2022/04/10 09:08:10;;;;;;;16.70;10.52;;;;;;;;;;4363406;32;20188;-63
2022/04/10 09:11:00;;;;;;;16.50;10.50;;;;;;;;;;4364410;32;20516;-64
2022/04/10 09:13:37;;;;;;;18.35;11.88;;;;;;;;;;4365202;32;20074;-63
2022/04/10 09:16:15;;;;;;;18.10;10.57;;;;;;;;;;4383453;32;20066;-63
2022/04/10 09:19:09;;;;;;;21.25;11.32;;;;;;;;;;4365478;32;20077;-63
2022/04/10 09:21:39;;;;;;;14.65;9.75;;;;;;;;;;4377883;32;20456;-62
2022/04/10 09:24:07;;;;;;;17.62;10.70;;;;;;;;;;4364274;32;20424;-61
2022/04/10 09:26:45;;;;;;;14.32;9.85;;;;;;;;;;4362881;32;20477;-61
2022/04/10 09:29:12;;;;;;;16.17;10.38;;;;;;;;;;4363312;32;20155;-62
2022/04/10 09:31:39;;;;;;;19.48;11.02;;;;;;;;;;4363913;32;20081;-62
2022/04/10 09:34:11;;;;;;;17.75;10.02;;;;;;;;;;4363160;32;20516;-62
2022/04/10 09:36:46;;;;;;;17.02;10.75;;;;;;;;;;4363003;32;20075;-63
2022/04/10 09:39:37;;;;;;;15.02;10.13;;;;;;;;;;4363425;32;20113;-62
2022/04/10 09:42:08;;;;;;;15.57;10.30;;;;;;;;;;4368394;32;20109;-61
2022/04/10 09:44:36;;;;;;;11.63;8.20;;;;;;;;;;4362712;32;20501;-62
2022/04/10 09:47:08;;;;;;;14.43;9.73;;;;;;;;;;4362719;32;20552;-63
2022/04/10 09:49:39;;;;;;;15.80;9.43;;;;;;;;;;4363245;32;20167;-63
2022/04/10 09:52:08;;;;;;;12.20;8.55;;;;;;;;;;4350345;32;20157;-62
2022/04/10 09:54:47;;;;;;;17.15;10.05;;;;;;;;;;4338292;32;20105;-62
2022/04/10 09:57:16;;;;;;;13.95;9.10;;;;;;;;;;4362764;32;20178;-63
2022/04/10 09:59:45;;;;;;;15.27;9.82;;;;;;;;;;4362413;32;20085;-62
2022/04/10 10:02:16;;;;;;;14.85;9.68;;;;;;;;;;4363138;32;20178;-62
2022/04/10 10:04:44;;;;;;;13.40;9.15;;;;;;;;;;4362710;32;20069;-61
2022/04/10 10:07:20;;;;;;;14.73;9.27;;;;;;;;;;4350577;32;20085;-63
2022/04/10 10:09:48;;;;;;;15.18;10.10;;;;;;;;;;4363225;32;20085;-63
2022/04/10 10:12:15;;;;;;;13.10;9.88;;;;;;;;;;4362693;32;20475;-63
2022/04/10 10:14:42;;;;;;;15.48;9.80;;;;;;;;;;4351025;32;20194;-63
2022/04/10 10:17:10;;;;;;;15.20;9.63;;;;;;;;;;4350044;32;20149;-63
2022/04/10 10:19:39;;;;;;;13.85;9.57;;;12.50;99.90;;;;;;4377068;32;20073;-63
2022/04/10 10:22:13;;;;;;;14.65;10.10;;;;;;;;;;4362429;32;20081;-63
2022/04/10 10:24:39;;;;;;;14.70;9.95;;;;;;;;;;4362737;32;20094;-63
2022/04/10 10:27:39;;;;;;;15.63;9.60;;;;;;;;;;4362842;32;20058;-63
2022/04/10 10:30:27;;;;;;;13.88;9.43;;;;;;;;;;4362775;32;20077;-64
2022/04/10 10:33:17;;;;;;;14.55;9.43;;;;;;;;;;4362422;32;20058;-64
2022/04/10 10:35:49;;;;;;;13.98;9.73;;;13.10;99.90;;;;;;4350596;32;20101;-63
2022/04/10 10:38:23;;;;;;;14.80;9.90;;;13.30;99.90;;;;;;4362851;32;20071;-63
2022/04/10 10:40:50;;;;;;;13.70;9.00;;;13.50;99.90;;;;;;4362390;32;20136;-63
2022/04/10 10:43:24;;;;;;;16.10;9.25;;;13.50;99.90;;;;;;4362698;32;20149;-63
2022/04/10 10:45:52;;;;;;;17.92;9.73;;;14.00;99.90;;;;;;4378506;32;20170;-65
2022/04/10 10:48:25;;;;;;;16.40;10.05;;;13.70;99.90;;;;;;4378956;32;20160;-63
2022/04/10 10:51:00;;;;;;;16.35;10.30;;;14.60;99.90;;;;;;4354519;32;20074;-63
2022/04/10 10:53:52;;;;;;;16.33;9.80;;;14.10;99.90;;;;;;4363422;32;20153;-63
2022/04/10 10:56:19;;;;;;;16.70;9.80;;;;;;;;;;4350156;32;20163;-63
2022/04/10 10:58:48;;;;;;;17.73;9.95;;;;;;;;;;4350230;32;20086;-63
2022/04/10 11:01:20;;;;;;;13.95;9.32;;;;;;;;;;4362577;32;20085;-63
2022/04/10 11:04:06;;;;;;;16.42;10.02;;;;;;;;;;4362772;32;20081;-63
2022/04/10 11:06:43;;;;;;;14.38;9.45;;;;;;;;;;4362069;32;20183;-62
2022/04/10 11:09:53;;;;;;;17.17;9.75;;;13.80;99.90;;;;;;4362035;32;20097;-64
2022/04/10 11:12:48;;;;;;;14.70;9.80;;;13.60;99.90;;;;;;4347074;32;20062;-63
2022/04/10 11:15:29;;;;;;;17.67;10.57;;;13.40;99.90;;;;;;4374915;32;20171;-62
2022/04/10 11:18:04;;;;;;;19.40;10.30;;;13.40;99.90;;;;;;4362131;32;20104;-62
2022/04/10 11:20:31;;;;;;;17.40;10.93;;;13.70;99.90;;;;;;4362211;32;20499;-63
2022/04/10 11:23:03;;;;;;;16.58;9.93;;;13.50;99.90;;;;;;4349724;32;20089;-63
2022/04/10 11:25:31;;;;;;;17.65;10.13;;;13.40;99.90;;;;;;4362202;32;20090;-63
2022/04/10 11:28:07;;;;;;;14.48;10.45;;;13.50;99.90;;;;;;4375456;32;20168;-63
2022/04/10 11:30:38;;;;;;;14.13;10.63;;;13.40;99.90;;;;;;4377329;32;20081;-63
2022/04/10 11:33:10;;;;;;;18.95;11.25;;;13.40;99.90;;;;;;4377238;32;20532;-64
2022/04/10 11:35:41;;;;;;;19.60;11.18;;;13.50;99.90;;;;;;4377655;32;20078;-64
2022/04/10 11:38:17;;;;;;;15.00;10.27;;;13.60;99.90;;;;;;4365780;32;20077;-64
2022/04/10 11:40:52;;;;;;;15.40;10.47;;;13.80;99.90;;;;;;4352860;32;20082;-64
2022/04/10 11:43:21;;;;;;;17.40;11.10;;;13.70;99.90;;;;;;4365023;32;20597;-62
2022/04/10 11:45:53;;;;;;;16.50;11.20;;;13.30;99.90;;;;;;4364339;32;20464;-64
2022/04/10 11:48:20;;;;;;;14.90;10.90;;;13.20;99.90;;;;;;4365181;32;20077;-62
2022/04/10 11:50:46;;;;;;;18.67;11.50;;;13.10;99.90;;;;;;4365030;32;20516;-64
2022/04/10 11:53:14;;;;;;;18.90;13.40;;;13.00;99.90;;;;;;4364771;32;20074;-63
2022/04/10 11:55:46;;;;;;;19.65;13.48;;;13.00;99.90;;;;;;4365270;32;20082;-63
2022/04/10 11:58:24;;;;;;;17.42;12.35;;;13.00;99.90;;;;;;4365376;32;20090;-62
2022/04/10 12:01:04;;;;;;;17.67;12.77;;;13.00;99.90;;;;;;4377894;32;20560;-63
2022/04/10 12:03:33;;;;;;;17.25;12.07;;;13.10;99.90;;;;;;4379694;32;20103;-62
2022/04/10 12:06:00;;;;;;;17.80;10.98;;;13.20;99.90;;;;;;4379291;32;20154;-63
2022/04/10 12:08:26;;;;;;;19.92;12.57;;;13.10;99.90;;;;;;4366544;32;20078;-64
2022/04/10 12:11:00;;;;;;;18.65;11.77;;;13.20;99.90;;;;;;4371495;32;20069;-62
2022/04/10 12:13:37;;;;;;;15.25;10.80;;;13.20;99.90;;;;;;4374779;32;20145;-67
2022/04/10 12:16:16;;;;;;;18.12;11.95;;;13.40;99.90;;;;;;4365297;32;20113;-64
2022/04/10 12:18:50;;;;;;;16.87;11.90;;;13.80;99.90;;;;;;4377523;32;20153;-63
2022/04/10 12:21:17;;;;;;;17.00;11.48;;;14.20;99.90;;;;;;4364473;32;20094;-62
2022/04/10 12:23:45;;;;;;;23.08;11.55;;;14.10;99.90;;;;;;4364183;32;20160;-62
2022/04/10 12:26:13;;;;;;;23.10;11.88;;;14.50;99.90;;;;;;4377969;32;20062;-62
2022/04/10 12:28:40;;;;;;;16.60;10.85;;;;;;;;;;4364334;32;20074;-63
2022/04/10 12:31:07;;;;;;;16.42;10.75;;;;;;;;;;4364105;32;20074;-62
2022/04/10 12:33:34;;;;;;;18.73;10.45;;;;;;;;;;4364319;32;20162;-64
2022/04/10 12:36:16;;;;;;;17.12;11.05;;;;;;;;;;4364017;32;20081;-62
2022/04/10 12:38:43;;;;;;;23.90;11.52;;;;;;;;;;4378479;32;20081;-64
2022/04/10 12:41:31;;;;;;;16.90;11.63;;;;;;;;;;4365811;32;20092;-63
2022/04/10 12:44:05;;;;;;;17.90;12.02;;;;;;;;;;4364604;32;20078;-63
2022/04/10 12:46:35;;;;;;;18.65;10.60;;;;;;;;;;4364034;32;20074;-63
2022/04/10 12:49:11;;;;;;;19.90;10.73;;;;;;;;;;4364054;32;20524;-63
2022/04/10 12:52:03;;;;;;;18.20;11.12;;;;;;;;;;4377716;32;20089;-63
2022/04/10 12:54:50;;;;;;;18.80;11.18;;;;;;;;;;4351609;32;20481;-64
2022/04/10 12:57:26;;;;;;;;;;;;;;;;;;4352625;32;20150;-63
2022/04/10 12:59:53;;;;;;;14.40;9.30;;;13.20;99.90;;;;;;4351341;32;20047;-63
2022/04/10 13:02:27;;;;;;;11.27;5.70;;;13.50;99.90;;;;;;4363680;32;20093;-64
2022/04/10 13:04:55;;;;;;;8.93;4.50;;;13.20;99.90;;;;;;4376311;32;20082;-64
2022/04/10 13:07:22;;;;;;;8.57;5.20;;;13.40;99.90;;;;;;4363320;32;20069;-63
2022/04/10 13:10:03;;;;;;;7.55;5.47;;;13.70;99.90;;;;;;4363795;32;20085;-63
2022/04/10 13:12:32;;;;;;;8.63;4.93;;;13.50;99.90;;;;;;4377344;32;20168;-63
2022/04/10 13:14:58;;;;;;;7.80;4.87;;;13.70;99.90;;;;;;4375856;32;20162;-63
2022/04/10 13:17:37;;;;;;;6.55;5.00;;;14.20;99.90;;;;;;4376689;32;20077;-63
2022/04/10 13:20:12;;;;;;;11.75;5.30;;;14.00;99.90;;;;;;4363260;32;20077;-64
2022/04/10 13:22:41;;;;;;;11.55;5.30;;;14.10;99.90;;;;;;4377100;32;20082;-64
2022/04/10 13:25:11;;;;;;;8.07;4.93;;;14.20;99.90;;;;;;4377236;32;20077;-64
2022/04/10 13:27:37;;;;;;;8.90;4.93;;;14.00;99.90;;;;;;4375496;32;20075;-63
2022/04/10 13:30:04;;;;;;;10.15;5.70;;;14.00;99.90;;;;;;4362933;32;20075;-64